Eastern Sierra Regional Airport Bishop US
ICAO: KBIH
IATA: BIH
Category: Medium
Scheduled Services: No

Elevation: 4124 ft
TransAlt. 18000 ft.

Airport Communications:
OAKLAND CNTR:125.75
ASOS:119.025
RIVERSIDE RDO:122.6
CTAF/UNICOM:123

KBIH Zoom In..

If you have problems with the map follow the link
https://www.worldairports.se/pages/airport.php?
ICAO=KBIH

Runways:

(A) RW 07 length 5567 ft width 100 ft
---- / hdg 75

(B) RW 12 length 7498 ft width 100 ft
---- / hdg 120

(C) RW 16 length 5600 ft width 100 ft
---- / hdg 165

(D) RW 25 length 5567 ft width 100 ft
---- / hdg 255

(E) RW 30 length 7498 ft width 100 ft
---- / hdg 300

(F) RW 34 length 5600 ft width 100 ft
---- / hdg 345

Location; KBIH
Day. 21 / Time. 07.56 Zulu
* Altimeter: 30.12
* Temperature: 03° c. 37.4°f.
* Wind from: 320° Speed 05 kn.
Dewpoint: -08° c.
Visibility: 10 Statute Miles.
Clouds: Clear (automated report).

KBIH 210756Z AUTO 32005KT 10SM CLR 03/M08 A3012 RMK AO2 SLP173 T00331083 402441006


Wind From 320°
Speed 05 kn.

 
 
jpsmedia.com for Web Design worldairports.se 2018   terms of use